Lower Lake, CA

8:29 PM PDT on July 02, 2015 (GMT -0700)
Deerscape at Rancho Sendero | | Change Station
CLOSE
Current Station
Personal Weather Station
Location: Lower Lake, CA
Elevation: 1404 ft
Nearby Weather Stations

Elev 1404 ft 38.88 °N, 122.60 °W | Updated 38 seconds ago

Clear
Clear
89.6 °F
Feels Like 87 °F
N
0.0
Wind Variable Wind from SE
Gusts 0.0 mph

Today
High -- | Low -- °F
--% Chance of Precip.
Yesterday
High -- | Low -- °F
Precip. -- in
5:49 AM 8:39 PM
Full, 99% visible
Pressure 29.90 in
Visibility 10.0 miles
Clouds Clear
Heat Index 87 °F
Dew Point 49 °F
Humidity 25%
Rainfall 0.00 in
Snow Depth Not available.
UV 0.0 out of 12
Pollen 5.60 out of 12
Air Quality Not available.
Flu Activity Not available.
METAR KSTS 030253Z AUTO 19009KT 10SM CLR 18/13 A2992 RMK AO2 SLP124 T01830128 53004

More Conditions Fewer Conditions

Pressure 29.90 in
Visibility 10.0 miles
Clouds Clear
Heat Index 87 °F
Dew Point 49 °F
Humidity 25%
Rainfall 0.00 in
Snow Depth Not available.
UV 0.0 out of 12
Pollen 5.60 out of 12
Air Quality Not available.
Flu Activity Not available.
METAR KSTS 030253Z AUTO 19009KT 10SM CLR 18/13 A2992 RMK AO2 SLP124 T01830128 53004

More Conditions Fewer Conditions

10-Day Weather Forecast

×

Almanac

Astronomy

Jul. 02, 2015 Rise Set
Actual Time
Civil Twilight
Nautical Twilight
Astronomical Twilight
Moon
Length of Visible Light
Length of Day
Tomorrow will be .
, % of the Moon is Illuminated

Today's Extremes

State Highs State Lows

Community

WunderPhotos

Upload Photos

1,834,604 photos uploaded!

WunderBlogs® & News

Nearby

Air Quality

  Air Quality AQ Index Pollutant
Not available.

Snow Depth

Station Depth Elevation

Earthquake Activity

City Distance Mag. Time & Date
Minimum magnitude displayed is 2.5.

Coastal Water Temperatures

Place Temperature

Stations

Nearby Weather Stations

Station Location Temp. Windchill Dew Point Humidity Wind Precip. Elev Updated Type